»·PEaware :: N204LE KSNA-KAVX

N204LE :: KSNA-KAVX

FLIGHT INFORMATION

Flight Status: Arrived
Operator: Privately registered:
United States
More flights under this callsign
Pilot: Bill F. (18685)
Aircraft: BEECH AIRCRAFT BONANZA
(BE36)
More flights by this aircraft type
Origin: KSNA John Wayne-Orange Co
United States
Destination: KAVX Catalina
United States
More flights between these airports :: More routes between these airports
Route:
File this flight plan on PilotEdge
Remarks:
Altitude:
(Current/Filed)
2,400ft
Speed:
(Current/Filed)
0kts
Departed: 12-Jan-21 06:28 PM
Arrived: 12-Jan-21 06:47 PM
Distance/Time
Traveled:
31nm/0:19
Distance/Time
To Go:
Arrived

Flight Plot

Page will automatically refresh every two minutes.


Map Options




Map Legend


Flown Route
Filed Route
Departure Airport
Arrival Airport
Navaid (VOR, NDB)
Fix

Horizontal Profiles

Position Reports

Time Latitude Longitude Heading Altitude Ground
Speed
12-Jan-21 18:07 33.670637 -117.874450 208 45ft 0kts
12-Jan-21 18:08 33.670637 -117.874450 208 45ft 0kts
12-Jan-21 18:09 33.670637 -117.874450 208 45ft 0kts
12-Jan-21 18:10 33.670637 -117.874450 208 45ft 0kts
12-Jan-21 18:11 33.670637 -117.874450 208 45ft 0kts
12-Jan-21 18:12 33.670637 -117.874450 208 45ft 0kts
12-Jan-21 18:13 33.670553 -117.874462 162 45ft 3kts
12-Jan-21 18:14 33.670482 -117.874396 117 45ft 0kts
12-Jan-21 18:15 33.670539 -117.873552 14 46ft 5kts
12-Jan-21 18:16 33.674223 -117.871278 28 46ft 21kts
12-Jan-21 18:17 33.677568 -117.868687 196 46ft 3kts
12-Jan-21 18:18 33.677536 -117.868703 204 46ft 0kts
12-Jan-21 18:19 33.677536 -117.868703 204 46ft 0kts
12-Jan-21 18:20 33.677536 -117.868703 204 46ft 0kts
12-Jan-21 18:21 33.677536 -117.868703 204 46ft 0kts
12-Jan-21 18:22 33.679694 -117.867959 19 45ft 17kts
12-Jan-21 18:23 33.681238 -117.866535 109 44ft 0kts
12-Jan-21 18:24 33.681238 -117.866535 109 44ft 0kts
12-Jan-21 18:25 33.681238 -117.866535 109 44ft 0kts
12-Jan-21 18:26 33.680076 -117.866068 208 44ft 24kts
12-Jan-21 18:27 33.665151 -117.885717 235 740ft 106kts
12-Jan-21 18:28 33.643337 -117.916937 222 1713ft 135kts
12-Jan-21 18:29 33.611976 -117.948026 220 2363ft 158kts
12-Jan-21 18:30 33.611373 -117.988855 299 2974ft 135kts
12-Jan-21 18:31 33.627642 -118.027231 299 3705ft 128kts
12-Jan-21 18:32 33.645093 -118.065122 298 4256ft 129kts
12-Jan-21 18:33 33.662878 -118.105082 298 4494ft 144kts
12-Jan-21 18:34 33.680911 -118.148208 294 4627ft 151kts
12-Jan-21 18:35 33.694661 -118.198199 285 4437ft 161kts
12-Jan-21 18:36 33.691785 -118.249468 227 4255ft 164kts
12-Jan-21 18:37 33.650490 -118.271723 203 4197ft 163kts
12-Jan-21 18:38 33.613632 -118.294112 208 4688ft 147kts
12-Jan-21 18:39 33.575929 -118.317697 209 4744ft 160kts
12-Jan-21 18:40 33.535438 -118.341221 201 4742ft 163kts
12-Jan-21 18:41 33.493121 -118.361121 201 4740ft 163kts
12-Jan-21 18:42 33.449149 -118.375044 196 4104ft 162kts
12-Jan-21 18:43 33.411276 -118.405557 231 2643ft 173kts
12-Jan-21 18:44 33.419505 -118.420475 58 2055ft 114kts
12-Jan-21 18:45 33.405959 -118.414164 232 1602ft 66kts
12-Jan-21 18:46 33.402628 -118.419110 52 1622ft 8kts
12-Jan-21 18:47 33.403776 -118.415189 41 1617ft 10kts
12-Jan-21 18:48 33.407036 -118.411654 56 1571ft 13kts
12-Jan-21 18:49 33.407173 -118.411425 34 1569ft 0kts
12-Jan-21 18:50 33.407176 -118.411422 33 1569ft 0kts
12-Jan-21 18:51 33.401206 -118.423436 253 1526ft 120kts
12-Jan-21 18:52 33.386546 -118.475316 236 999ft 192kts
12-Jan-21 18:53 33.341231 -118.483776 147 783ft 177kts
12-Jan-21 18:54 33.315207 -118.438845 96 795ft 166kts
12-Jan-21 18:55 33.317997 -118.382170 98 556ft 175kts
12-Jan-21 18:56 33.297802 -118.330399 109 605ft 164kts
12-Jan-21 18:57 33.323158 -118.302917 338 747ft 172kts
12-Jan-21 18:58 33.362826 -118.333972 314 698ft 169kts
12-Jan-21 19:00 33.401477 -118.365044 358 467ft 175kts
12-Jan-21 19:01 33.422313 -118.409692 280 571ft 155kts

Navigation Log

Ident Type
Flight plan parsing failed, navigation log unavailable